sensor_id;sensor_type;location;lat;lon;timestamp;pressure;altitude;pressure_sealevel;temperature;humidity
8641;BME280;4358;42.100;25.222;2023-09-30T00:01:08;100327.28;;;20.04;94.53
8641;BME280;4358;42.100;25.222;2023-09-30T00:03:35;100331.88;;;20.11;93.70
8641;BME280;4358;42.100;25.222;2023-09-30T00:06:02;100320.09;;;20.12;93.59
8641;BME280;4358;42.100;25.222;2023-09-30T00:08:30;100320.72;;;20.06;93.66
8641;BME280;4358;42.100;25.222;2023-09-30T00:10:58;100333.50;;;20.04;93.81
8641;BME280;4358;42.100;25.222;2023-09-30T00:13:25;100323.34;;;19.98;93.73
8641;BME280;4358;42.100;25.222;2023-09-30T00:15:52;100328.72;;;19.98;93.90
8641;BME280;4358;42.100;25.222;2023-09-30T00:18:19;100330.97;;;20.03;93.65
8641;BME280;4358;42.100;25.222;2023-09-30T00:20:45;100319.16;;;19.86;94.62
8641;BME280;4358;42.100;25.222;2023-09-30T00:23:13;100322.56;;;19.88;95.00
8641;BME280;4358;42.100;25.222;2023-09-30T00:25:40;100318.84;;;19.89;95.36
8641;BME280;4358;42.100;25.222;2023-09-30T00:28:08;100316.63;;;19.84;95.72
8641;BME280;4358;42.100;25.222;2023-09-30T00:30:35;100315.63;;;19.85;95.82
8641;BME280;4358;42.100;25.222;2023-09-30T00:33:02;100318.41;;;19.94;95.45
8641;BME280;4358;42.100;25.222;2023-09-30T00:35:31;100316.94;;;19.81;95.74
8641;BME280;4358;42.100;25.222;2023-09-30T00:37:58;100307.09;;;19.63;97.34
8641;BME280;4358;42.100;25.222;2023-09-30T00:40:25;100316.50;;;19.59;98.33
8641;BME280;4358;42.100;25.222;2023-09-30T00:42:52;100316.19;;;19.62;98.16
8641;BME280;4358;42.100;25.222;2023-09-30T00:45:20;100310.44;;;19.57;98.16
8641;BME280;4358;42.100;25.222;2023-09-30T00:47:47;100308.19;;;19.42;98.56
8641;BME280;4358;42.100;25.222;2023-09-30T00:50:15;100316.88;;;19.36;99.19
8641;BME280;4358;42.100;25.222;2023-09-30T00:52:42;100313.75;;;19.31;99.53
8641;BME280;4358;42.100;25.222;2023-09-30T00:55:10;100306.00;;;19.28;99.94
8641;BME280;4358;42.100;25.222;2023-09-30T00:57:38;100310.97;;;19.23;100.00
8641;BME280;4358;42.100;25.222;2023-09-30T01:00:06;100306.75;;;19.11;100.00
8641;BME280;4358;42.100;25.222;2023-09-30T01:02:38;100303.97;;;19.03;100.00
8641;BME280;4358;42.100;25.222;2023-09-30T01:05:06;100300.22;;;18.77;100.00
8641;BME280;4358;42.100;25.222;2023-09-30T01:07:33;100298.84;;;18.63;100.00
8641;BME280;4358;42.100;25.222;2023-09-30T01:10:00;100304.34;;;18.42;100.00
8641;BME280;4358;42.100;25.222;2023-09-30T01:12:27;100311.56;;;18.51;100.00
8641;BME280;4358;42.100;25.222;2023-09-30T01:14:57;100310.31;;;18.55;100.00
8641;BME280;4358;42.100;25.222;2023-09-30T01:17:24;100312.16;;;18.55;100.00
8641;BME280;4358;42.100;25.222;2023-09-30T01:19:52;100298.44;;;18.29;100.00
8641;BME280;4358;42.100;25.222;2023-09-30T01:22:20;100306.06;;;18.24;100.00
8641;BME280;4358;42.100;25.222;2023-09-30T01:24:47;100309.16;;;18.29;100.00
8641;BME280;4358;42.100;25.222;2023-09-30T01:27:14;100306.34;;;18.11;100.00
8641;BME280;4358;42.100;25.222;2023-09-30T01:29:44;100301.69;;;18.04;100.00
8641;BME280;4358;42.100;25.222;2023-09-30T01:32:11;100306.75;;;18.07;100.00
8641;BME280;4358;42.100;25.222;2023-09-30T01:34:39;100308.03;;;18.12;100.00
8641;BME280;4358;42.100;25.222;2023-09-30T01:37:06;100300.81;;;18.03;100.00
8641;BME280;4358;42.100;25.222;2023-09-30T01:39:34;100308.47;;;17.89;100.00
8641;BME280;4358;42.100;25.222;2023-09-30T01:42:01;100306.47;;;17.91;100.00
8641;BME280;4358;42.100;25.222;2023-09-30T01:44:29;100306.03;;;17.86;100.00
8641;BME280;4358;42.100;25.222;2023-09-30T01:46:56;100305.91;;;17.87;100.00
8641;BME280;4358;42.100;25.222;2023-09-30T01:49:22;100307.59;;;17.78;100.00
8641;BME280;4358;42.100;25.222;2023-09-30T01:51:51;100309.69;;;17.75;100.00
8641;BME280;4358;42.100;25.222;2023-09-30T01:54:18;100303.50;;;17.94;100.00
8641;BME280;4358;42.100;25.222;2023-09-30T01:56:46;100299.97;;;18.03;100.00
8641;BME280;4358;42.100;25.222;2023-09-30T01:59:13;100302.66;;;18.03;100.00
8641;BME280;4358;42.100;25.222;2023-09-30T02:01:40;100301.38;;;18.07;100.00
8641;BME280;4358;42.100;25.222;2023-09-30T02:04:07;100302.38;;;18.06;100.00
8641;BME280;4358;42.100;25.222;2023-09-30T02:06:34;100302.38;;;17.96;100.00
8641;BME280;4358;42.100;25.222;2023-09-30T02:09:01;100298.13;;;17.84;100.00
8641;BME280;4358;42.100;25.222;2023-09-30T02:11:28;100303.22;;;17.77;100.00
8641;BME280;4358;42.100;25.222;2023-09-30T02:13:58;100295.47;;;17.54;100.00
8641;BME280;4358;42.100;25.222;2023-09-30T02:16:24;100301.66;;;17.35;100.00
8641;BME280;4358;42.100;25.222;2023-09-30T02:18:52;100299.94;;;17.34;100.00
8641;BME280;4358;42.100;25.222;2023-09-30T02:21:19;100298.25;;;17.33;100.00
8641;BME280;4358;42.100;25.222;2023-09-30T02:23:47;100303.00;;;17.20;100.00
8641;BME280;4358;42.100;25.222;2023-09-30T02:26:14;100289.28;;;16.83;100.00
8641;BME280;4358;42.100;25.222;2023-09-30T02:28:41;100288.09;;;16.55;100.00
8641;BME280;4358;42.100;25.222;2023-09-30T02:31:09;100290.28;;;16.61;100.00
8641;BME280;4358;42.100;25.222;2023-09-30T02:33:36;100289.03;;;16.65;100.00
8641;BME280;4358;42.100;25.222;2023-09-30T02:36:07;100295.03;;;16.58;100.00
8641;BME280;4358;42.100;25.222;2023-09-30T02:38:34;100289.34;;;16.51;100.00
8641;BME280;4358;42.100;25.222;2023-09-30T02:41:02;100294.69;;;16.30;100.00
8641;BME280;4358;42.100;25.222;2023-09-30T02:43:29;100292.31;;;15.95;100.00
8641;BME280;4358;42.100;25.222;2023-09-30T02:45:56;100293.91;;;15.87;100.00
8641;BME280;4358;42.100;25.222;2023-09-30T02:48:24;100298.66;;;15.83;100.00
8641;BME280;4358;42.100;25.222;2023-09-30T02:50:51;100292.41;;;15.62;100.00
8641;BME280;4358;42.100;25.222;2023-09-30T02:53:18;100290.94;;;15.69;100.00
8641;BME280;4358;42.100;25.222;2023-09-30T02:55:45;100290.06;;;15.68;100.00
8641;BME280;4358;42.100;25.222;2023-09-30T02:58:12;100293.84;;;15.55;100.00
8641;BME280;4358;42.100;25.222;2023-09-30T03:00:39;100289.97;;;15.48;100.00
8641;BME280;4358;42.100;25.222;2023-09-30T03:03:06;100288.75;;;15.41;100.00
8641;BME280;4358;42.100;25.222;2023-09-30T03:05:35;100285.72;;;15.34;100.00
8641;BME280;4358;42.100;25.222;2023-09-30T03:08:04;100286.34;;;15.26;100.00
8641;BME280;4358;42.100;25.222;2023-09-30T03:10:32;100283.31;;;15.20;100.00
8641;BME280;4358;42.100;25.222;2023-09-30T03:12:59;100287.31;;;15.14;100.00
8641;BME280;4358;42.100;25.222;2023-09-30T03:15:27;100278.59;;;15.01;100.00
8641;BME280;4358;42.100;25.222;2023-09-30T03:17:54;100278.22;;;14.95;100.00
8641;BME280;4358;42.100;25.222;2023-09-30T03:20:21;100287.69;;;14.99;100.00
8641;BME280;4358;42.100;25.222;2023-09-30T03:22:52;100284.41;;;15.06;100.00
8641;BME280;4358;42.100;25.222;2023-09-30T03:25:19;100281.50;;;15.09;100.00
8641;BME280;4358;42.100;25.222;2023-09-30T03:27:48;100288.16;;;15.04;100.00
8641;BME280;4358;42.100;25.222;2023-09-30T03:30:16;100287.22;;;15.05;100.00
8641;BME280;4358;42.100;25.222;2023-09-30T03:32:45;100288.28;;;15.13;100.00
8641;BME280;4358;42.100;25.222;2023-09-30T03:35:12;100290.00;;;15.03;100.00
8641;BME280;4358;42.100;25.222;2023-09-30T03:37:42;100284.91;;;15.11;100.00
8641;BME280;4358;42.100;25.222;2023-09-30T03:40:12;100293.63;;;15.02;100.00
8641;BME280;4358;42.100;25.222;2023-09-30T03:42:40;100293.16;;;15.19;100.00
8641;BME280;4358;42.100;25.222;2023-09-30T03:45:09;100282.09;;;15.13;100.00
8641;BME280;4358;42.100;25.222;2023-09-30T03:47:37;100301.66;;;15.24;100.00
8641;BME280;4358;42.100;25.222;2023-09-30T03:50:04;100302.63;;;15.35;100.00
8641;BME280;4358;42.100;25.222;2023-09-30T03:52:36;100304.81;;;15.30;100.00
8641;BME280;4358;42.100;25.222;2023-09-30T03:55:04;100300.44;;;15.28;100.00
8641;BME280;4358;42.100;25.222;2023-09-30T03:57:33;100303.34;;;15.25;100.00
8641;BME280;4358;42.100;25.222;2023-09-30T04:00:00;100302.88;;;15.09;100.00
8641;BME280;4358;42.100;25.222;2023-09-30T04:02:31;100297.03;;;14.93;100.00
8641;BME280;4358;42.100;25.222;2023-09-30T04:04:58;100296.31;;;14.80;100.00
8641;BME280;4358;42.100;25.222;2023-09-30T04:07:25;100298.22;;;14.67;100.00
8641;BME280;4358;42.100;25.222;2023-09-30T04:09:54;100296.66;;;14.64;100.00
8641;BME280;4358;42.100;25.222;2023-09-30T04:12:21;100297.25;;;14.68;100.00
8641;BME280;4358;42.100;25.222;2023-09-30T04:14:50;100299.91;;;14.57;100.00
8641;BME280;4358;42.100;25.222;2023-09-30T04:17:17;100297.44;;;14.43;100.00
8641;BME280;4358;42.100;25.222;2023-09-30T04:19:44;100304.19;;;14.35;100.00
8641;BME280;4358;42.100;25.222;2023-09-30T04:22:11;100302.34;;;14.49;100.00
8641;BME280;4358;42.100;25.222;2023-09-30T04:24:38;100304.72;;;14.40;100.00
8641;BME280;4358;42.100;25.222;2023-09-30T04:27:05;100302.56;;;14.57;100.00
8641;BME280;4358;42.100;25.222;2023-09-30T04:29:33;100308.88;;;14.56;100.00
8641;BME280;4358;42.100;25.222;2023-09-30T04:32:01;100310.59;;;14.57;100.00
8641;BME280;4358;42.100;25.222;2023-09-30T04:34:29;100311.19;;;14.60;100.00
8641;BME280;4358;42.100;25.222;2023-09-30T04:36:56;100319.63;;;14.78;100.00
8641;BME280;4358;42.100;25.222;2023-09-30T04:39:22;100310.84;;;14.76;100.00
8641;BME280;4358;42.100;25.222;2023-09-30T04:41:50;100313.81;;;14.84;100.00
8641;BME280;4358;42.100;25.222;2023-09-30T04:44:17;100326.69;;;14.90;100.00
8641;BME280;4358;42.100;25.222;2023-09-30T04:46:43;100315.75;;;14.93;100.00
8641;BME280;4358;42.100;25.222;2023-09-30T04:49:14;100322.06;;;14.92;100.00
8641;BME280;4358;42.100;25.222;2023-09-30T04:51:41;100315.50;;;14.85;100.00
8641;BME280;4358;42.100;25.222;2023-09-30T04:54:08;100324.00;;;14.90;100.00
8641;BME280;4358;42.100;25.222;2023-09-30T04:56:36;100325.59;;;15.04;100.00
8641;BME280;4358;42.100;25.222;2023-09-30T04:59:04;100324.50;;;15.06;100.00
8641;BME280;4358;42.100;25.222;2023-09-30T05:01:31;100326.81;;;15.11;100.00
8641;BME280;4358;42.100;25.222;2023-09-30T05:03:58;100327.03;;;15.08;100.00
8641;BME280;4358;42.100;25.222;2023-09-30T05:06:27;100330.34;;;15.11;100.00
8641;BME280;4358;42.100;25.222;2023-09-30T05:08:53;100329.97;;;15.16;100.00
8641;BME280;4358;42.100;25.222;2023-09-30T05:11:21;100330.56;;;15.08;100.00
8641;BME280;4358;42.100;25.222;2023-09-30T05:13:48;100332.53;;;15.17;100.00
8641;BME280;4358;42.100;25.222;2023-09-30T05:16:16;100330.59;;;15.31;100.00
8641;BME280;4358;42.100;25.222;2023-09-30T05:18:43;100336.41;;;15.47;100.00
8641;BME280;4358;42.100;25.222;2023-09-30T05:21:10;100341.19;;;15.54;100.00
8641;BME280;4358;42.100;25.222;2023-09-30T05:23:39;100337.63;;;15.65;100.00
8641;BME280;4358;42.100;25.222;2023-09-30T05:26:05;100335.69;;;15.67;100.00
8641;BME280;4358;42.100;25.222;2023-09-30T05:28:32;100335.06;;;15.75;100.00
8641;BME280;4358;42.100;25.222;2023-09-30T05:31:00;100344.13;;;15.94;100.00
8641;BME280;4358;42.100;25.222;2023-09-30T05:33:27;100346.50;;;16.08;100.00
8641;BME280;4358;42.100;25.222;2023-09-30T05:35:54;100347.22;;;16.22;100.00
8641;BME280;4358;42.100;25.222;2023-09-30T05:38:21;100350.56;;;16.35;100.00
8641;BME280;4358;42.100;25.222;2023-09-30T05:40:50;100358.50;;;16.57;100.00
8641;BME280;4358;42.100;25.222;2023-09-30T05:43:17;100349.28;;;16.71;100.00
8641;BME280;4358;42.100;25.222;2023-09-30T05:45:45;100351.59;;;16.75;100.00
8641;BME280;4358;42.100;25.222;2023-09-30T05:48:15;100340.16;;;16.94;100.00
8641;BME280;4358;42.100;25.222;2023-09-30T05:50:42;100349.75;;;16.97;100.00
8641;BME280;4358;42.100;25.222;2023-09-30T05:53:09;100348.16;;;17.15;100.00
8641;BME280;4358;42.100;25.222;2023-09-30T05:55:37;100340.31;;;17.32;100.00
8641;BME280;4358;42.100;25.222;2023-09-30T05:58:05;100346.34;;;17.55;100.00
8641;BME280;4358;42.100;25.222;2023-09-30T06:00:32;100350.38;;;17.70;100.00
8641;BME280;4358;42.100;25.222;2023-09-30T06:03:00;100352.09;;;17.91;100.00
8641;BME280;4358;42.100;25.222;2023-09-30T06:05:29;100360.66;;;18.15;100.00
8641;BME280;4358;42.100;25.222;2023-09-30T06:07:57;100349.03;;;18.24;100.00
8641;BME280;4358;42.100;25.222;2023-09-30T06:10:24;100350.19;;;18.31;100.00
8641;BME280;4358;42.100;25.222;2023-09-30T06:12:52;100361.22;;;18.47;100.00
8641;BME280;4358;42.100;25.222;2023-09-30T06:15:22;100362.63;;;18.71;100.00
8641;BME280;4358;42.100;25.222;2023-09-30T06:17:51;100341.84;;;18.73;100.00
8641;BME280;4358;42.100;25.222;2023-09-30T06:20:19;100359.16;;;19.07;100.00
8641;BME280;4358;42.100;25.222;2023-09-30T06:22:48;100362.50;;;19.28;100.00
8641;BME280;4358;42.100;25.222;2023-09-30T06:25:16;100361.84;;;19.54;100.00
8641;BME280;4358;42.100;25.222;2023-09-30T06:27:43;100363.16;;;19.77;100.00
8641;BME280;4358;42.100;25.222;2023-09-30T06:30:11;100363.22;;;20.12;100.00
8641;BME280;4358;42.100;25.222;2023-09-30T06:32:40;100363.47;;;20.37;100.00
8641;BME280;4358;42.100;25.222;2023-09-30T06:35:08;100363.41;;;20.64;98.00
8641;BME280;4358;42.100;25.222;2023-09-30T06:37:36;100366.31;;;20.88;95.06
8641;BME280;4358;42.100;25.222;2023-09-30T06:40:05;100365.38;;;21.05;94.41
8641;BME280;4358;42.100;25.222;2023-09-30T06:42:33;100365.69;;;21.20;93.03
8641;BME280;4358;42.100;25.222;2023-09-30T06:45:00;100369.31;;;21.37;91.52
8641;BME280;4358;42.100;25.222;2023-09-30T06:47:31;100361.47;;;21.51;91.03
8641;BME280;4358;42.100;25.222;2023-09-30T06:50:00;100363.22;;;21.69;88.85
8641;BME280;4358;42.100;25.222;2023-09-30T06:52:33;100363.13;;;21.86;86.54
8641;BME280;4358;42.100;25.222;2023-09-30T06:54:59;100362.38;;;22.02;85.38
8641;BME280;4358;42.100;25.222;2023-09-30T06:57:26;100366.13;;;22.17;85.40
8641;BME280;4358;42.100;25.222;2023-09-30T06:59:53;100367.00;;;22.34;83.78
8641;BME280;4358;42.100;25.222;2023-09-30T07:02:20;100361.59;;;22.42;82.00
8641;BME280;4358;42.100;25.222;2023-09-30T07:04:48;100367.03;;;22.50;81.62
8641;BME280;4358;42.100;25.222;2023-09-30T07:07:16;100371.06;;;22.62;79.93
8641;BME280;4358;42.100;25.222;2023-09-30T07:09:44;100360.94;;;22.72;79.55
8641;BME280;4358;42.100;25.222;2023-09-30T07:12:11;100364.00;;;22.77;79.28
8641;BME280;4358;42.100;25.222;2023-09-30T07:14:37;100360.09;;;22.96;78.39
8641;BME280;4358;42.100;25.222;2023-09-30T07:17:04;100362.59;;;23.14;77.38
8641;BME280;4358;42.100;25.222;2023-09-30T07:19:32;100359.19;;;23.28;76.39
8641;BME280;4358;42.100;25.222;2023-09-30T07:21:58;100363.25;;;23.32;75.32
8641;BME280;4358;42.100;25.222;2023-09-30T07:24:27;100358.31;;;23.36;75.30
8641;BME280;4358;42.100;25.222;2023-09-30T07:26:53;100353.34;;;23.55;75.53
8641;BME280;4358;42.100;25.222;2023-09-30T07:29:21;100363.38;;;23.55;75.06
8641;BME280;4358;42.100;25.222;2023-09-30T07:31:48;100362.66;;;23.61;73.66
8641;BME280;4358;42.100;25.222;2023-09-30T07:34:16;100364.66;;;23.75;73.99
8641;BME280;4358;42.100;25.222;2023-09-30T07:36:43;100354.44;;;23.85;73.42
8641;BME280;4358;42.100;25.222;2023-09-30T07:39:09;100373.31;;;24.01;72.89
8641;BME280;4358;42.100;25.222;2023-09-30T07:41:38;100362.78;;;24.06;73.08
8641;BME280;4358;42.100;25.222;2023-09-30T07:44:05;100362.53;;;24.24;71.60
8641;BME280;4358;42.100;25.222;2023-09-30T07:46:31;100363.50;;;24.31;69.51
8641;BME280;4358;42.100;25.222;2023-09-30T07:48:58;100358.13;;;24.46;68.75
8641;BME280;4358;42.100;25.222;2023-09-30T07:51:25;100361.56;;;24.63;67.19
8641;BME280;4358;42.100;25.222;2023-09-30T07:53:52;100366.13;;;24.85;67.00
8641;BME280;4358;42.100;25.222;2023-09-30T07:56:19;100358.97;;;24.92;66.71
8641;BME280;4358;42.100;25.222;2023-09-30T07:58:49;100357.50;;;25.04;65.95
8641;BME280;4358;42.100;25.222;2023-09-30T08:01:16;100357.59;;;25.11;64.38
8641;BME280;4358;42.100;25.222;2023-09-30T08:03:43;100349.25;;;25.12;64.40
8641;BME280;4358;42.100;25.222;2023-09-30T08:06:10;100353.97;;;25.33;63.80
8641;BME280;4358;42.100;25.222;2023-09-30T08:08:37;100353.41;;;25.38;63.02
8641;BME280;4358;42.100;25.222;2023-09-30T08:11:03;100349.47;;;25.40;62.72
8641;BME280;4358;42.100;25.222;2023-09-30T08:13:31;100359.00;;;25.51;59.29
8641;BME280;4358;42.100;25.222;2023-09-30T08:16:00;100347.78;;;25.54;60.54
8641;BME280;4358;42.100;25.222;2023-09-30T08:18:27;100353.41;;;25.67;60.54
8641;BME280;4358;42.100;25.222;2023-09-30T08:20:53;100354.72;;;25.71;57.05
8641;BME280;4358;42.100;25.222;2023-09-30T08:23:20;100342.72;;;25.80;58.19
8641;BME280;4358;42.100;25.222;2023-09-30T08:25:47;100339.75;;;25.96;58.46
8641;BME280;4358;42.100;25.222;2023-09-30T08:28:14;100344.34;;;26.10;54.33
8641;BME280;4358;42.100;25.222;2023-09-30T08:30:41;100351.63;;;26.25;52.71
8641;BME280;4358;42.100;25.222;2023-09-30T08:33:10;100330.19;;;26.36;55.49
8641;BME280;4358;42.100;25.222;2023-09-30T08:35:37;100337.50;;;26.36;53.04
8641;BME280;4358;42.100;25.222;2023-09-30T08:38:03;100340.09;;;26.44;51.30
8641;BME280;4358;42.100;25.222;2023-09-30T08:40:31;100344.81;;;26.56;53.00
8641;BME280;4358;42.100;25.222;2023-09-30T08:42:58;100342.19;;;26.63;52.39
8641;BME280;4358;42.100;25.222;2023-09-30T08:45:27;100333.22;;;26.69;52.75
8641;BME280;4358;42.100;25.222;2023-09-30T08:47:55;100334.88;;;26.70;53.41
8641;BME280;4358;42.100;25.222;2023-09-30T08:50:23;100336.44;;;26.79;52.56
8641;BME280;4358;42.100;25.222;2023-09-30T08:52:51;100340.16;;;26.93;50.14
8641;BME280;4358;42.100;25.222;2023-09-30T08:55:18;100336.63;;;26.99;49.37
8641;BME280;4358;42.100;25.222;2023-09-30T08:57:46;100336.81;;;26.97;49.11
8641;BME280;4358;42.100;25.222;2023-09-30T09:00:14;100329.78;;;27.10;50.86
8641;BME280;4358;42.100;25.222;2023-09-30T09:02:42;100332.22;;;27.26;49.20
8641;BME280;4358;42.100;25.222;2023-09-30T09:05:09;100324.81;;;27.20;48.95
8641;BME280;4358;42.100;25.222;2023-09-30T09:07:38;100324.66;;;27.28;48.67
8641;BME280;4358;42.100;25.222;2023-09-30T09:10:06;100337.00;;;27.24;48.28
8641;BME280;4358;42.100;25.222;2023-09-30T09:12:34;100320.81;;;27.16;48.91
8641;BME280;4358;42.100;25.222;2023-09-30T09:15:02;100327.00;;;27.31;48.66
8641;BME280;4358;42.100;25.222;2023-09-30T09:17:42;100330.34;;;27.33;48.23
8641;BME280;4358;42.100;25.222;2023-09-30T09:20:11;100334.81;;;27.40;48.96
8641;BME280;4358;42.100;25.222;2023-09-30T09:22:42;100329.16;;;27.42;48.72
8641;BME280;4358;42.100;25.222;2023-09-30T09:25:10;100316.63;;;27.48;48.78
8641;BME280;4358;42.100;25.222;2023-09-30T09:27:38;100310.00;;;27.63;47.52
8641;BME280;4358;42.100;25.222;2023-09-30T09:30:15;100303.97;;;27.81;48.99
8641;BME280;4358;42.100;25.222;2023-09-30T09:32:52;100304.38;;;27.78;47.87
8641;BME280;4358;42.100;25.222;2023-09-30T09:35:20;100300.97;;;27.69;46.50
8641;BME280;4358;42.100;25.222;2023-09-30T09:37:56;100294.50;;;27.70;47.77
8641;BME280;4358;42.100;25.222;2023-09-30T09:40:27;100298.09;;;27.77;47.15
8641;BME280;4358;42.100;25.222;2023-09-30T09:42:54;100292.47;;;27.92;47.51
8641;BME280;4358;42.100;25.222;2023-09-30T09:45:22;100285.69;;;27.75;48.09
8641;BME280;4358;42.100;25.222;2023-09-30T09:47:49;100275.75;;;27.54;43.08
8641;BME280;4358;42.100;25.222;2023-09-30T09:50:18;100283.78;;;27.62;45.38
8641;BME280;4358;42.100;25.222;2023-09-30T09:52:47;100292.03;;;27.82;47.75
8641;BME280;4358;42.100;25.222;2023-09-30T09:55:17;100290.56;;;27.86;39.56
8641;BME280;4358;42.100;25.222;2023-09-30T09:57:44;100288.31;;;28.09;38.71
8641;BME280;4358;42.100;25.222;2023-09-30T10:00:12;100287.53;;;28.22;37.75
8641;BME280;4358;42.100;25.222;2023-09-30T10:02:41;100295.91;;;28.27;37.65
8641;BME280;4358;42.100;25.222;2023-09-30T10:05:08;100288.38;;;28.29;37.81
8641;BME280;4358;42.100;25.222;2023-09-30T10:07:41;100271.16;;;28.35;36.76
8641;BME280;4358;42.100;25.222;2023-09-30T10:10:13;100283.38;;;28.72;36.90
8641;BME280;4358;42.100;25.222;2023-09-30T10:12:43;100293.03;;;28.75;36.63
8641;BME280;4358;42.100;25.222;2023-09-30T10:15:35;100288.84;;;28.52;36.07
8641;BME280;4358;42.100;25.222;2023-09-30T10:18:03;100283.97;;;28.28;36.17
8641;BME280;4358;42.100;25.222;2023-09-30T10:20:33;100269.28;;;28.36;36.04
8641;BME280;4358;42.100;25.222;2023-09-30T10:23:23;100261.28;;;28.47;35.60
8641;BME280;4358;42.100;25.222;2023-09-30T10:25:52;100257.31;;;28.56;36.03
8641;BME280;4358;42.100;25.222;2023-09-30T10:28:40;100263.59;;;28.63;34.87
8641;BME280;4358;42.100;25.222;2023-09-30T10:31:09;100278.09;;;28.71;34.98
8641;BME280;4358;42.100;25.222;2023-09-30T10:33:35;100268.66;;;28.67;34.37
8641;BME280;4358;42.100;25.222;2023-09-30T10:36:03;100251.47;;;28.73;35.23
8641;BME280;4358;42.100;25.222;2023-09-30T10:38:40;100245.75;;;28.68;34.05
8641;BME280;4358;42.100;25.222;2023-09-30T10:41:08;100278.31;;;28.69;34.72
8641;BME280;4358;42.100;25.222;2023-09-30T10:43:35;100244.69;;;28.69;35.01
8641;BME280;4358;42.100;25.222;2023-09-30T10:46:04;100244.50;;;28.77;35.14
8641;BME280;4358;42.100;25.222;2023-09-30T10:48:51;100244.72;;;28.75;34.21
8641;BME280;4358;42.100;25.222;2023-09-30T10:51:19;100250.19;;;28.82;34.48
8641;BME280;4358;42.100;25.222;2023-09-30T10:53:48;100225.38;;;28.83;35.14
8641;BME280;4358;42.100;25.222;2023-09-30T10:56:17;100239.22;;;28.95;34.56
8641;BME280;4358;42.100;25.222;2023-09-30T10:58:45;100233.78;;;28.88;33.74
8641;BME280;4358;42.100;25.222;2023-09-30T11:01:15;100234.84;;;28.81;33.98
8641;BME280;4358;42.100;25.222;2023-09-30T11:03:42;100242.19;;;28.74;33.48
8641;BME280;4358;42.100;25.222;2023-09-30T11:06:11;100232.50;;;28.64;34.73
8641;BME280;4358;42.100;25.222;2023-09-30T11:08:45;100237.13;;;28.71;34.31
8641;BME280;4358;42.100;25.222;2023-09-30T11:11:12;100218.69;;;28.73;34.60
8641;BME280;4358;42.100;25.222;2023-09-30T11:13:40;100211.47;;;28.91;33.77
8641;BME280;4358;42.100;25.222;2023-09-30T11:16:07;100236.31;;;28.83;33.87
8641;BME280;4358;42.100;25.222;2023-09-30T11:18:35;100204.78;;;28.81;33.42
8641;BME280;4358;42.100;25.222;2023-09-30T11:21:08;100209.41;;;28.74;33.06
8641;BME280;4358;42.100;25.222;2023-09-30T11:23:36;100210.25;;;28.68;33.72
8641;BME280;4358;42.100;25.222;2023-09-30T11:26:04;100211.09;;;28.68;34.60
8641;BME280;4358;42.100;25.222;2023-09-30T11:28:36;100214.22;;;28.98;34.36
8641;BME280;4358;42.100;25.222;2023-09-30T11:31:07;100209.72;;;29.10;34.74
8641;BME280;4358;42.100;25.222;2023-09-30T11:33:49;100193.31;;;29.23;34.37
8641;BME280;4358;42.100;25.222;2023-09-30T11:36:18;100195.00;;;29.24;33.94
8641;BME280;4358;42.100;25.222;2023-09-30T11:38:46;100206.22;;;29.03;34.52
8641;BME280;4358;42.100;25.222;2023-09-30T11:41:15;100199.91;;;28.96;34.51
8641;BME280;4358;42.100;25.222;2023-09-30T11:43:58;100208.53;;;28.93;35.38
8641;BME280;4358;42.100;25.222;2023-09-30T11:46:26;100210.22;;;28.94;34.89
8641;BME280;4358;42.100;25.222;2023-09-30T11:48:59;100198.91;;;28.71;35.85
8641;BME280;4358;42.100;25.222;2023-09-30T11:51:27;100193.44;;;28.71;35.39
8641;BME280;4358;42.100;25.222;2023-09-30T11:53:55;100219.94;;;28.57;35.50
8641;BME280;4358;42.100;25.222;2023-09-30T11:56:23;100194.50;;;28.56;35.62
8641;BME280;4358;42.100;25.222;2023-09-30T11:58:55;100185.28;;;28.51;36.32
8641;BME280;4358;42.100;25.222;2023-09-30T12:01:21;100187.56;;;28.60;36.91
8641;BME280;4358;42.100;25.222;2023-09-30T12:03:51;100188.81;;;28.58;37.03
8641;BME280;4358;42.100;25.222;2023-09-30T12:06:20;100172.47;;;28.45;37.95
8641;BME280;4358;42.100;25.222;2023-09-30T12:08:47;100185.06;;;28.39;36.43
8641;BME280;4358;42.100;25.222;2023-09-30T12:11:14;100176.44;;;28.49;35.85
8641;BME280;4358;42.100;25.222;2023-09-30T12:13:41;100181.69;;;28.44;35.96
8641;BME280;4358;42.100;25.222;2023-09-30T12:16:10;100186.53;;;28.61;37.03
8641;BME280;4358;42.100;25.222;2023-09-30T12:18:38;100187.78;;;28.65;36.03
8641;BME280;4358;42.100;25.222;2023-09-30T12:21:07;100170.13;;;28.61;35.58
8641;BME280;4358;42.100;25.222;2023-09-30T12:23:35;100165.91;;;28.65;36.18
8641;BME280;4358;42.100;25.222;2023-09-30T12:26:02;100175.38;;;28.83;36.71
8641;BME280;4358;42.100;25.222;2023-09-30T12:28:30;100161.91;;;28.81;37.56
8641;BME280;4358;42.100;25.222;2023-09-30T12:30:58;100179.13;;;28.69;36.93
8641;BME280;4358;42.100;25.222;2023-09-30T12:33:27;100166.56;;;28.48;36.78
8641;BME280;4358;42.100;25.222;2023-09-30T12:35:54;100150.63;;;28.51;37.38
8641;BME280;4358;42.100;25.222;2023-09-30T12:38:20;100143.88;;;28.60;37.60
8641;BME280;4358;42.100;25.222;2023-09-30T12:40:48;100144.31;;;28.57;37.88
8641;BME280;4358;42.100;25.222;2023-09-30T12:43:15;100142.84;;;28.61;37.94
8641;BME280;4358;42.100;25.222;2023-09-30T12:45:42;100138.03;;;28.50;36.80
8641;BME280;4358;42.100;25.222;2023-09-30T12:48:09;100129.22;;;28.35;36.57
8641;BME280;4358;42.100;25.222;2023-09-30T12:50:36;100144.75;;;28.41;36.43
8641;BME280;4358;42.100;25.222;2023-09-30T12:53:03;100146.00;;;28.45;36.40
8641;BME280;4358;42.100;25.222;2023-09-30T12:55:30;100135.94;;;28.39;36.17
8641;BME280;4358;42.100;25.222;2023-09-30T12:57:59;100135.50;;;28.42;36.52
8641;BME280;4358;42.100;25.222;2023-09-30T13:00:26;100133.41;;;28.51;36.33